Time;durP1;ratioP1;P1;durP2;ratioP2;P2;SDS_P1;SDS_P2;PMS_P1;PMS_P2;Temp;Humidity;BMP_temperature;BMP_pressure;BME280_temperature;BME280_humidity;BME280_pressure;Samples;Min_cycle;Max_cycle;Signal;HPM_P1;HPM_P2
2022/03/09 00:02:13;;;;;;;4.60;3.00;;;;;;;0.62;56.10;100498.70;116800;1189;23478;-51
2022/03/09 00:04:42;;;;;;;6.10;3.60;;;;;;;0.67;56.07;100498.16;116835;1189;24240;-50
2022/03/09 00:07:11;;;;;;;5.80;3.40;;;;;;;0.72;55.94;100496.75;116891;1189;21842;-51
2022/03/09 00:09:40;;;;;;;5.80;3.70;;;;;;;0.78;56.12;100494.84;116877;1189;23450;-62
2022/03/09 00:12:09;;;;;;;7.40;4.20;;;;;;;0.84;56.09;100496.07;117015;1188;23450;-60
2022/03/09 00:14:39;;;;;;;6.70;4.00;;;;;;;0.88;56.11;100494.80;116939;1188;21854;-51
2022/03/09 00:17:07;;;;;;;5.60;3.90;;;;;;;0.92;55.84;100490.75;116944;1188;23516;-51
2022/03/09 00:19:37;;;;;;;5.30;3.60;;;;;;;0.95;56.01;100489.83;116898;1188;21867;-52
2022/03/09 00:22:05;;;;;;;6.10;3.60;;;;;;;0.99;56.04;100486.48;117015;1188;23555;-52
2022/03/09 00:24:34;;;;;;;5.90;3.70;;;;;;;1.01;55.96;100484.83;116878;1189;22972;-62
2022/03/09 00:27:03;;;;;;;5.40;3.70;;;;;;;1.03;55.95;100482.45;116900;1189;21873;-50
2022/03/09 00:29:32;;;;;;;5.50;3.90;;;;;;;1.06;56.13;100482.34;116878;1188;22972;-51
2022/03/09 00:32:00;;;;;;;5.10;3.60;;;;;;;1.08;55.98;100479.81;116983;1188;22273;-62
2022/03/09 00:34:29;;;;;;;6.10;4.20;;;;;;;1.11;56.06;100479.89;116933;1188;23577;-51
2022/03/09 00:36:58;;;;;;;5.50;3.70;;;;;;;1.15;56.01;100480.88;116933;1189;21855;-62
2022/03/09 00:39:27;;;;;;;7.30;4.60;;;;;;;1.20;55.88;100483.59;116918;1189;23475;-51
2022/03/09 00:41:55;;;;;;;5.60;4.10;;;;;;;1.27;55.71;100478.96;116906;1189;21863;-51
2022/03/09 00:44:23;;;;;;;6.20;4.20;;;;;;;1.33;55.86;100477.20;116920;1189;23455;-62
2022/03/09 00:46:52;;;;;;;7.10;5.30;;;;;;;1.38;55.89;100478.70;116891;1189;22657;-51
2022/03/09 00:49:21;;;;;;;7.30;4.90;;;;;;;1.34;55.88;100474.80;116876;1189;23911;-62
2022/03/09 00:51:49;;;;;;;6.70;4.70;;;;;;;1.36;55.92;100475.88;116954;1187;21864;-51
2022/03/09 00:54:18;;;;;;;7.30;5.10;;;;;;;1.37;55.87;100472.80;116933;1186;23552;-51
2022/03/09 00:56:47;;;;;;;9.20;4.90;;;;;;;1.38;55.95;100471.29;116918;1189;23451;-49
2022/03/09 00:59:16;;;;;;;7.80;5.00;;;;;;;1.40;56.15;100469.45;116936;1189;23470;-62
2022/03/09 01:01:44;;;;;;;7.10;4.80;;;;;;;1.41;55.86;100467.74;116995;1186;21851;-61
2022/03/09 01:04:13;;;;;;;6.00;4.40;;;;;;;1.39;55.97;100467.33;116896;1185;23448;-51
2022/03/09 01:06:42;;;;;;;5.60;4.40;;;;;;;1.37;55.98;100465.86;116951;1189;22647;-62
2022/03/09 01:09:11;;;;;;;6.70;4.80;;;;;;;1.35;56.05;100464.45;116897;1186;23461;-52
2022/03/09 01:11:42;;;;;;;6.30;4.90;;;;;;;1.33;55.94;100461.83;116883;1187;24194;-52
2022/03/09 01:14:11;;;;;;;7.00;4.50;;;;;;;1.34;55.84;100463.92;116928;1188;21965;-51
2022/03/09 01:16:39;;;;;;;6.70;4.30;;;;;;;1.35;55.88;100461.54;116915;1186;22647;-61
2022/03/09 01:19:15;;;;;;;5.50;4.10;;;;;;;1.36;55.94;100463.44;116853;1189;21847;-51
2022/03/09 01:21:46;;;;;;;6.60;4.50;;;;;;;1.34;55.81;100466.67;116889;1188;23793;-52
2022/03/09 01:24:14;;;;;;;6.00;4.10;;;;;;;1.34;55.88;100465.81;116885;1186;23567;-62
2022/03/09 01:26:43;;;;;;;6.30;4.90;;;;;;;1.33;56.08;100467.52;116816;1189;23478;-52
2022/03/09 01:29:11;;;;;;;6.20;4.60;;;;;;;1.31;55.91;100464.35;116847;1189;22648;-61
2022/03/09 01:31:41;;;;;;;7.50;4.80;;;;;;;1.30;55.87;100467.45;116762;1191;21853;-62
2022/03/09 01:34:09;;;;;;;8.10;5.00;;;;;;;1.29;55.95;100467.25;116771;1192;21995;-52
2022/03/09 01:36:39;;;;;;;;;;;;;;;1.27;55.65;100471.52;116860;1189;23550;-62
2022/03/09 01:39:08;;;;;;;6.40;4.60;;;;;;;1.26;55.67;100470.11;116899;1189;23453;-51
2022/03/09 01:41:37;;;;;;;7.00;4.70;;;;;;;1.25;56.00;100469.23;116901;1184;23476;-62
2022/03/09 01:44:14;;;;;;;7.00;4.60;;;;;;;1.23;55.94;100471.23;116850;1189;22915;-53
2022/03/09 01:46:45;;;;;;;7.00;4.80;;;;;;;1.20;55.82;100472.36;116878;1189;22408;-62
2022/03/09 01:49:14;;;;;;;6.80;4.10;;;;;;;1.18;55.75;100467.98;116880;1189;22951;-62
2022/03/09 01:51:44;;;;;;;8.70;4.30;;;;;;;1.14;55.86;100470.82;116876;1186;21856;-51
2022/03/09 01:54:13;;;;;;;7.80;4.50;;;;;;;1.11;55.86;100470.21;116905;1188;22557;-52
2022/03/09 01:56:42;;;;;;;7.50;5.00;;;;;;;1.09;55.75;100473.27;116905;1188;21874;-52
2022/03/09 01:59:11;;;;;;;8.30;5.10;;;;;;;1.07;55.89;100475.80;116888;1189;22934;-52
2022/03/09 02:01:39;;;;;;;7.20;5.10;;;;;;;1.05;55.98;100475.06;116894;1192;23476;-61
2022/03/09 02:04:10;;;;;;;7.40;4.90;;;;;;;1.02;55.87;100477.41;116778;1191;21841;-62
2022/03/09 02:06:45;;;;;;;6.30;4.80;;;;;;;0.99;55.68;100476.61;116856;1192;21828;-51
2022/03/09 02:12:12;;;;;;;7.80;5.80;;;;;;;0.87;55.98;100475.95;116807;1189;23475;-52
2022/03/09 02:14:44;;;;;;;6.70;5.00;;;;;;;0.86;56.25;100475.91;116810;1189;22998;-62
2022/03/09 02:17:17;;;;;;;7.90;5.40;;;;;;;0.84;56.22;100475.00;116784;1189;24213;-62
2022/03/09 02:19:48;;;;;;;6.70;4.70;;;;;;;0.82;56.31;100477.52;116939;1189;23475;-61
2022/03/09 02:22:19;;;;;;;7.40;5.10;;;;;;;0.80;56.11;100477.28;116884;1188;22811;-62
2022/03/09 02:24:49;;;;;;;6.30;4.60;;;;;;;0.79;56.38;100478.47;116884;1189;22645;-51
2022/03/09 02:27:20;;;;;;;6.50;4.60;;;;;;;0.79;56.52;100478.30;116940;1189;21854;-61
2022/03/09 02:29:52;;;;;;;7.70;5.10;;;;;;;0.80;56.40;100480.57;116830;1188;21868;-62
2022/03/09 02:32:21;;;;;;;6.00;4.60;;;;;;;0.78;56.22;100480.16;116994;1188;21885;-62
2022/03/09 02:34:50;;;;;;;6.60;4.80;;;;;;;0.78;56.20;100482.42;116919;1189;21946;-52
2022/03/09 02:37:19;;;;;;;6.40;4.40;;;;;;;0.75;56.16;100481.13;116870;1188;23459;-52
2022/03/09 02:39:48;;;;;;;6.10;3.80;;;;;;;0.73;56.24;100480.75;116901;1189;23454;-62
2022/03/09 02:42:16;;;;;;;6.90;4.40;;;;;;;0.71;56.30;100482.21;116920;1188;23554;-62
2022/03/09 02:44:45;;;;;;;4.80;3.70;;;;;;;0.67;56.22;100482.80;116942;1189;23455;-62
2022/03/09 02:47:13;;;;;;;7.00;4.00;;;;;;;0.64;56.19;100482.54;116961;1189;23507;-62
2022/03/09 02:49:42;;;;;;;6.80;4.00;;;;;;;0.62;56.15;100486.45;116900;1189;23994;-61
2022/03/09 02:52:11;;;;;;;6.00;3.80;;;;;;;0.60;56.36;100488.29;116844;1189;23548;-62
2022/03/09 02:54:40;;;;;;;5.60;3.80;;;;;;;0.59;56.26;100492.59;116923;1189;22721;-62
2022/03/09 02:57:08;;;;;;;7.00;4.30;;;;;;;0.64;56.03;100493.59;116862;1189;23439;-52
2022/03/09 02:59:37;;;;;;;5.90;4.50;;;;;;;0.63;56.27;100499.44;116894;1189;23455;-52
2022/03/09 03:02:06;;;;;;;6.30;4.50;;;;;;;0.64;55.98;100500.67;116933;1189;24173;-62
2022/03/09 03:04:34;;;;;;;6.40;4.20;;;;;;;0.66;55.98;100498.14;116865;1189;23687;-51
2022/03/09 03:07:03;;;;;;;7.40;4.70;;;;;;;0.68;56.27;100495.42;116901;1189;21839;-61
2022/03/09 03:09:37;;;;;;;7.00;4.80;;;;;;;0.68;55.99;100501.80;116850;1181;24172;-51
2022/03/09 03:12:06;;;;;;;6.20;4.40;;;;;;;0.68;55.99;100499.38;116946;1189;23552;-62
2022/03/09 03:14:36;;;;;;;6.80;4.60;;;;;;;0.70;56.23;100503.08;116851;1189;23595;-51
2022/03/09 03:17:06;;;;;;;6.50;4.40;;;;;;;0.66;56.35;100502.80;116876;1189;21894;-51
2022/03/09 03:19:35;;;;;;;7.00;4.70;;;;;;;0.64;56.33;100506.19;116950;1188;23547;-63
2022/03/09 03:22:03;;;;;;;6.90;4.60;;;;;;;0.64;56.37;100504.11;116900;1188;23442;-62
2022/03/09 03:24:32;;;;;;;6.80;4.40;;;;;;;0.67;56.49;100502.45;116888;1189;24702;-51
2022/03/09 03:27:01;;;;;;;7.10;4.90;;;;;;;0.70;56.41;100501.55;116895;1189;23836;-61
2022/03/09 03:29:29;;;;;;;6.30;4.30;;;;;;;0.69;56.47;100504.78;116851;1188;22622;-51
2022/03/09 03:31:58;;;;;;;8.40;4.40;;;;;;;0.67;56.48;100503.35;116878;1188;23496;-55
2022/03/09 03:34:27;;;;;;;5.90;4.20;;;;;;;0.65;56.27;100502.62;116844;1189;22622;-61
2022/03/09 03:36:56;;;;;;;5.60;4.20;;;;;;;0.64;56.45;100502.91;116851;1189;24178;-62
2022/03/09 03:39:24;;;;;;;7.40;4.60;;;;;;;0.64;56.47;100503.09;116855;1189;22139;-62
2022/03/09 03:41:53;;;;;;;5.90;3.90;;;;;;;0.66;56.65;100505.05;116846;1189;22932;-52
2022/03/09 03:44:23;;;;;;;6.60;4.30;;;;;;;0.68;56.33;100507.17;116792;1191;23455;-52
2022/03/09 03:46:55;;;;;;;7.30;5.20;;;;;;;0.71;56.61;100508.14;116814;1189;23487;-51
2022/03/09 03:49:24;;;;;;;6.80;4.70;;;;;;;0.76;56.62;100506.70;116822;1189;23456;-52
2022/03/09 03:51:53;;;;;;;8.10;5.10;;;;;;;0.80;56.65;100507.54;116845;1189;22950;-51
2022/03/09 03:54:22;;;;;;;7.30;4.50;;;;;;;0.83;56.35;100507.63;116858;1189;21940;-61
2022/03/09 03:56:50;;;;;;;6.00;4.40;;;;;;;0.89;56.48;100509.52;116844;1189;21954;-51
2022/03/09 03:59:19;;;;;;;7.50;4.90;;;;;;;0.92;56.52;100511.98;116826;1188;23455;-51
2022/03/09 04:01:47;;;;;;;7.50;5.10;;;;;;;0.95;56.36;100513.83;116908;1189;21851;-62
2022/03/09 04:04:16;;;;;;;7.20;4.80;;;;;;;1.02;56.62;100515.43;116883;1189;22933;-62
2022/03/09 04:06:46;;;;;;;8.30;4.70;;;;;;;1.07;56.37;100512.45;116849;1189;21865;-62
2022/03/09 04:09:34;;;;;;;8.40;5.10;;;;;;;1.05;56.27;100512.75;116877;1188;21850;-53
2022/03/09 04:12:04;;;;;;;6.60;4.40;;;;;;;1.08;56.44;100514.72;117537;1188;23461;-62
2022/03/09 04:14:32;;;;;;;6.50;4.20;;;;;;;1.11;56.40;100518.80;116951;1188;24206;-52
2022/03/09 04:17:04;;;;;;;10.90;4.50;;;;;;;1.14;56.77;100521.80;116826;1188;22310;-62
2022/03/09 04:19:34;;;;;;;7.10;4.70;;;;;;;1.20;56.66;100523.01;116829;1189;21859;-62
2022/03/09 04:22:05;;;;;;;;;;;;;;;1.26;56.54;100523.69;116915;1189;22249;-64
2022/03/09 04:24:34;;;;;;;7.50;4.50;;;;;;;1.30;56.53;100518.46;116877;1188;22810;-62
2022/03/09 04:27:04;;;;;;;6.40;3.90;;;;;;;1.33;56.69;100519.90;116850;1189;23506;-52
2022/03/09 04:29:32;;;;;;;5.80;4.00;;;;;;;1.34;56.68;100518.02;116854;1189;22932;-62
2022/03/09 04:32:02;;;;;;;6.90;4.20;;;;;;;1.35;56.51;100516.50;116931;1189;21861;-62
2022/03/09 04:34:30;;;;;;;5.70;3.70;;;;;;;1.34;56.51;100516.83;116909;1189;21903;-53
2022/03/09 04:36:58;;;;;;;8.40;4.20;;;;;;;1.32;56.73;100522.83;116884;1189;23453;-63
2022/03/09 04:39:27;;;;;;;7.00;4.20;;;;;;;1.33;56.86;100523.55;116940;1188;23570;-50
2022/03/09 04:41:56;;;;;;;7.50;4.40;;;;;;;1.36;56.70;100529.33;116842;1189;22717;-51
2022/03/09 04:44:24;;;;;;;6.70;4.10;;;;;;;1.39;56.87;100531.98;116889;1189;22811;-52
2022/03/09 04:46:53;;;;;;;13.60;4.30;;;;;;;1.43;56.96;100534.38;116902;1189;22935;-51
2022/03/09 04:49:22;;;;;;;7.70;4.20;;;;;;;1.47;57.07;100537.61;116900;1189;21959;-50
2022/03/09 04:51:54;;;;;;;9.20;5.50;;;;;;;1.52;56.99;100539.46;116881;1189;23557;-63
2022/03/09 04:54:22;;;;;;;11.90;6.40;;;;;;;1.56;56.99;100541.98;116875;1188;23483;-64
2022/03/09 04:56:51;;;;;;;8.90;5.50;;;;;;;1.59;56.86;100542.21;116925;1188;23579;-64
2022/03/09 04:59:20;;;;;;;18.60;7.50;;;;;;;1.61;56.82;100540.55;116947;1188;22943;-51
2022/03/09 05:01:48;;;;;;;16.90;7.40;;;;;;;1.64;56.95;100543.41;116893;1189;21854;-51
2022/03/09 05:04:17;;;;;;;37.00;12.70;;;;;;;1.68;57.04;100543.86;116910;1188;21860;-64
2022/03/09 05:06:47;;;;;;;27.40;9.50;;;;;;;1.71;56.98;100546.70;116963;1188;24172;-63
2022/03/09 05:09:15;;;;;;;24.80;11.90;;;;;;;1.73;57.00;100550.23;116944;1188;22933;-65
2022/03/09 05:11:44;;;;;;;30.30;11.60;;;;;;;1.72;56.93;100550.02;116873;1189;23482;-65
2022/03/09 05:14:12;;;;;;;34.10;12.00;;;;;;;1.69;56.68;100553.90;116881;1189;21941;-53
2022/03/09 05:16:41;;;;;;;38.50;14.30;;;;;;;1.64;56.65;100556.03;116859;1189;23470;-52
2022/03/09 05:19:10;;;;;;;43.70;14.10;;;;;;;1.56;56.46;100561.70;116940;1189;21854;-51
2022/03/09 05:21:38;;;;;;;23.20;8.40;;;;;;;1.46;56.29;100562.64;116767;1189;23560;-63
2022/03/09 05:24:27;;;;;;;17.70;6.80;;;;;;;1.35;56.39;100565.27;116772;1190;24216;-52
2022/03/09 05:26:56;;;;;;;16.40;8.20;;;;;;;1.28;56.34;100567.48;116925;1189;23455;-64
2022/03/09 05:29:24;;;;;;;18.70;7.60;;;;;;;1.25;56.39;100567.57;116733;1189;21850;-53
2022/03/09 05:31:53;;;;;;;9.40;4.80;;;;;;;1.22;56.37;100570.61;116731;1189;24180;-53
2022/03/09 05:34:22;;;;;;;11.90;6.40;;;;;;;1.16;56.18;100573.05;116831;1189;23584;-53
2022/03/09 05:36:54;;;;;;;13.90;4.90;;;;;;;1.13;56.48;100575.70;116860;1189;21915;-63
2022/03/09 05:39:22;;;;;;;7.90;5.40;;;;;;;1.10;56.31;100574.41;116856;1188;24216;-62
2022/03/09 05:41:52;;;;;;;8.10;5.20;;;;;;;1.09;56.37;100579.04;116890;1189;23534;-53
2022/03/09 05:44:20;;;;;;;9.50;5.50;;;;;;;1.09;56.63;100585.43;116816;1189;21894;-62
2022/03/09 05:46:50;;;;;;;7.60;5.00;;;;;;;1.10;56.68;100583.92;116874;1189;21852;-62
2022/03/09 05:49:21;;;;;;;8.50;4.40;;;;;;;1.16;56.39;100584.25;116808;1189;21854;-63
2022/03/09 05:51:52;;;;;;;9.50;4.80;;;;;;;1.19;56.67;100585.55;116755;1190;21856;-53
2022/03/09 05:54:21;;;;;;;6.70;4.40;;;;;;;1.22;56.52;100585.13;116774;1189;24176;-63
2022/03/09 05:56:50;;;;;;;6.30;3.80;;;;;;;1.27;56.62;100588.04;116783;1188;22023;-62
2022/03/09 05:59:18;;;;;;;6.80;4.00;;;;;;;1.32;56.53;100591.13;116827;1189;21941;-61
2022/03/09 06:01:47;;;;;;;7.00;4.20;;;;;;;1.40;56.72;100592.55;116916;1184;23721;-53
2022/03/09 06:04:16;;;;;;;7.60;4.10;;;;;;;1.47;56.76;100594.48;116890;1189;23537;-52
2022/03/09 06:06:44;;;;;;;8.60;4.70;;;;;;;1.59;56.96;100598.09;116780;1189;21909;-53
2022/03/09 06:09:14;;;;;;;9.10;4.40;;;;;;;1.70;57.04;100602.73;116743;1189;21842;-65
2022/03/09 06:11:43;;;;;;;6.70;4.70;;;;;;;1.79;57.09;100606.76;116935;1189;23478;-66
2022/03/09 06:14:12;;;;;;;8.00;4.90;;;;;;;1.87;57.19;100609.60;116901;1189;23672;-66
2022/03/09 06:16:41;;;;;;;7.70;4.60;;;;;;;1.97;57.33;100612.77;116777;1189;21856;-67
2022/03/09 06:19:10;;;;;;;7.70;4.40;;;;;;;2.04;57.15;100614.00;116893;1188;23547;-52
2022/03/09 06:21:39;;;;;;;7.20;4.40;;;;;;;2.11;57.11;100617.13;116900;1188;23526;-51
2022/03/09 06:24:08;;;;;;;7.00;5.00;;;;;;;2.17;57.07;100619.73;116811;1184;22948;-51
2022/03/09 06:26:36;;;;;;;8.70;4.90;;;;;;;2.23;57.02;100624.20;116909;1188;23557;-51
2022/03/09 06:29:05;;;;;;;8.80;5.70;;;;;;;2.29;57.13;100624.52;116942;1188;21865;-67
2022/03/09 06:31:33;;;;;;;8.30;5.10;;;;;;;2.36;57.15;100627.65;116853;1189;22116;-51
2022/03/09 06:34:02;;;;;;;6.30;4.70;;;;;;;2.42;57.08;100628.66;116857;1189;22975;-66
2022/03/09 06:36:31;;;;;;;7.50;5.40;;;;;;;2.47;57.04;100631.20;116971;1184;23019;-53
2022/03/09 06:39:00;;;;;;;7.20;5.30;;;;;;;2.55;57.06;100631.04;117001;1188;21908;-54
2022/03/09 06:41:29;;;;;;;7.70;5.70;;;;;;;2.60;57.16;100633.08;116776;1189;21855;-67
2022/03/09 06:43:59;;;;;;;7.50;4.90;;;;;;;2.62;57.16;100635.05;116876;1186;21856;-67
2022/03/09 06:46:27;;;;;;;9.00;5.50;;;;;;;2.64;57.14;100638.72;116875;1188;23554;-52
2022/03/09 06:48:56;;;;;;;8.70;5.40;;;;;;;2.67;57.16;100639.48;116782;1189;23556;-51
2022/03/09 06:51:25;;;;;;;7.40;5.30;;;;;;;2.70;57.09;100638.85;116710;1189;22813;-50
2022/03/09 06:53:54;;;;;;;7.30;4.90;;;;;;;2.72;57.21;100641.51;116991;1189;23464;-67
2022/03/09 06:56:22;;;;;;;7.70;5.30;;;;;;;2.77;57.10;100641.63;116912;1188;23453;-68
2022/03/09 06:58:51;;;;;;;11.50;7.30;;;;;;;2.83;57.18;100643.66;117079;1188;23609;-67
2022/03/09 07:01:19;;;;;;;32.10;15.30;;;;;;;2.85;57.14;100643.73;116830;1188;22643;-68
2022/03/09 07:03:49;;;;;;;19.80;11.00;;;;;;;2.88;57.06;100643.79;116804;1189;22808;-67
2022/03/09 07:06:17;;;;;;;14.50;8.50;;;;;;;2.89;57.10;100647.27;116861;1188;24172;-51
2022/03/09 07:08:46;;;;;;;17.30;9.90;;;;;;;2.92;57.26;100646.66;116864;1188;22460;-50
2022/03/09 07:11:14;;;;;;;11.40;7.40;;;;;;;2.99;57.27;100649.94;116810;1188;21855;-52
2022/03/09 07:14:02;;;;;;;11.90;8.60;;;;;;;3.08;57.23;100650.14;116840;1188;21880;-51
2022/03/09 07:16:31;;;;;;;10.80;7.60;;;;;;;3.15;57.25;100653.06;117956;1188;23449;-65
2022/03/09 07:19:00;;;;;;;8.60;6.00;;;;;;;3.22;57.24;100652.87;116903;1181;23454;-49
2022/03/09 07:21:29;;;;;;;8.40;5.90;;;;;;;3.24;57.19;100645.46;116955;1188;21916;-49
2022/03/09 07:23:57;;;;;;;11.80;7.30;;;;;;;3.23;57.09;100648.04;116935;1188;23465;-69
2022/03/09 07:26:26;;;;;;;10.20;6.20;;;;;;;3.23;57.23;100652.73;116913;1188;23659;-50
2022/03/09 07:28:57;;;;;;;10.70;6.40;;;;;;;3.34;57.46;100650.01;116887;1188;23585;-49
2022/03/09 07:31:26;;;;;;;13.10;8.20;;;;;;;3.41;57.29;100648.25;116878;1190;21877;-65
2022/03/09 07:33:58;;;;;;;9.10;6.20;;;;;;;3.41;57.20;100648.62;116955;1188;23452;-64
2022/03/09 07:36:26;;;;;;;9.40;8.00;;;;;;;3.40;57.21;100646.84;117022;1188;23461;-50
2022/03/09 07:38:57;;;;;;;;;;;;;;;3.40;57.10;100647.20;116969;1188;21836;-50
2022/03/09 07:41:41;;;;;;;9.20;6.20;;;;;;;3.45;57.25;100645.21;116903;1188;23579;-66
2022/03/09 07:44:09;;;;;;;10.60;7.00;;;;;;;3.48;57.22;100646.66;117040;1187;22075;-49
2022/03/09 07:46:42;;;;;;;9.20;6.10;;;;;;;3.48;57.23;100649.80;116865;1189;23494;-66
2022/03/09 07:49:10;;;;;;;8.20;6.10;;;;;;;3.48;57.21;100648.56;117033;1188;24236;-65
2022/03/09 07:51:39;;;;;;;11.40;6.90;;;;;;;3.52;57.31;100651.63;116889;1189;21900;-65
2022/03/09 07:54:07;;;;;;;8.70;5.80;;;;;;;3.60;57.33;100650.20;117051;1188;21849;-58
2022/03/09 07:56:36;;;;;;;9.20;6.30;;;;;;;3.65;57.34;100650.83;116875;1188;23265;-68
2022/03/09 07:59:05;;;;;;;8.30;5.90;;;;;;;3.65;57.24;100655.86;116948;1189;23005;-50
2022/03/09 08:01:34;;;;;;;8.70;5.60;;;;;;;3.61;57.15;100657.17;116988;1188;22931;-67
2022/03/09 08:04:04;;;;;;;7.00;5.10;;;;;;;3.55;57.00;100658.79;116990;1188;21849;-66
2022/03/09 08:06:33;;;;;;;9.00;6.70;;;;;;;3.51;57.00;100665.99;116847;1189;21867;-66
2022/03/09 08:09:04;;;;;;;8.20;5.90;;;;;;;3.48;57.03;100663.84;116763;1189;23675;-68
2022/03/09 08:11:33;;;;;;;9.50;7.50;;;;;;;3.48;57.10;100669.05;116754;1189;23519;-67
2022/03/09 08:14:04;;;;;;;11.10;6.80;;;;;;;3.49;57.10;100670.11;118089;1188;22536;-53
2022/03/09 08:16:34;;;;;;;9.00;6.10;;;;;;;3.49;57.11;100675.67;116849;1188;21852;-67
2022/03/09 08:19:05;;;;;;;9.70;6.30;;;;;;;3.51;57.16;100672.42;117029;1188;22318;-68
2022/03/09 08:21:37;;;;;;;12.10;7.70;;;;;;;3.51;56.95;100671.20;116917;1189;23487;-67
2022/03/09 08:24:07;;;;;;;10.30;7.50;;;;;;;3.51;57.02;100668.92;116750;1189;23566;-51
2022/03/09 08:26:36;;;;;;;11.40;7.60;;;;;;;3.51;57.14;100671.02;116832;1188;23627;-68
2022/03/09 08:29:06;;;;;;;12.50;8.30;;;;;;;3.53;57.10;100669.15;116822;1188;22965;-51
2022/03/09 08:31:35;;;;;;;12.20;8.00;;;;;;;3.69;57.45;100669.15;116814;1189;23472;-51
2022/03/09 08:34:08;;;;;;;11.10;7.30;;;;;;;3.82;57.59;100668.36;116903;1188;23579;-67
2022/03/09 08:36:37;;;;;;;10.90;7.70;;;;;;;3.88;57.32;100673.86;117068;1188;21851;-51
2022/03/09 08:39:05;;;;;;;11.40;6.90;;;;;;;3.91;57.33;100673.04;116922;1188;23451;-66
2022/03/09 08:41:34;;;;;;;9.20;6.30;;;;;;;3.92;57.23;100673.58;116895;1189;22632;-68
2022/03/09 08:44:07;;;;;;;8.10;6.10;;;;;;;3.93;57.24;100677.24;116929;1188;21932;-68
2022/03/09 08:46:36;;;;;;;8.80;6.10;;;;;;;3.93;57.20;100680.02;116916;1183;21943;-67
2022/03/09 08:49:05;;;;;;;8.70;6.20;;;;;;;3.96;57.19;100676.27;116908;1188;21927;-50
2022/03/09 08:51:33;;;;;;;12.10;7.40;;;;;;;3.97;57.28;100677.34;117108;1188;21930;-67
2022/03/09 08:54:02;;;;;;;10.60;7.00;;;;;;;4.01;57.36;100681.92;116864;1187;24164;-54
2022/03/09 08:56:31;;;;;;;11.00;6.50;;;;;;;4.05;57.29;100679.55;116907;1188;23590;-49
2022/03/09 08:58:59;;;;;;;10.20;6.50;;;;;;;4.12;57.31;100685.77;116845;1189;23522;-51
2022/03/09 09:01:29;;;;;;;7.10;6.20;;;;;;;4.19;57.39;100689.73;116915;1188;23481;-49
2022/03/09 09:04:14;;;;;;;7.60;5.40;;;;;;;4.29;57.39;100690.43;116844;1188;24624;-66
2022/03/09 09:06:44;;;;;;;8.30;6.10;;;;;;;4.44;57.62;100691.91;116895;1189;23557;-67
2022/03/09 09:09:17;;;;;;;8.50;6.20;;;;;;;4.59;57.63;100693.05;116793;1189;24313;-66
2022/03/09 09:11:46;;;;;;;8.00;6.10;;;;;;;4.71;57.59;100693.60;116835;1189;21949;-66
2022/03/09 09:14:15;;;;;;;8.70;6.20;;;;;;;4.85;57.91;100692.95;116879;1188;21882;-52
2022/03/09 09:16:48;;;;;;;7.40;5.70;;;;;;;4.93;57.53;100698.30;116865;1188;22954;-65
2022/03/09 09:19:17;;;;;;;7.80;6.00;;;;;;;4.97;57.62;100698.00;117021;1189;24711;-54
2022/03/09 09:21:49;;;;;;;9.40;6.20;;;;;;;5.01;57.42;100699.83;116924;1188;21842;-51
2022/03/09 09:24:18;;;;;;;6.50;5.30;;;;;;;5.00;57.44;100699.27;116947;1189;23566;-52
2022/03/09 09:26:46;;;;;;;8.50;5.70;;;;;;;4.91;57.10;100705.05;116908;1188;24309;-66
2022/03/09 09:29:24;;;;;;;7.30;5.60;;;;;;;4.82;57.17;100704.38;116836;1186;24211;-50
2022/03/09 09:31:53;;;;;;;8.40;5.70;;;;;;;4.80;56.99;100698.61;116875;1188;24177;-65
2022/03/09 09:34:22;;;;;;;7.50;5.40;;;;;;;4.70;57.30;100701.40;116888;1188;21857;-49
2022/03/09 09:36:52;;;;;;;7.90;6.10;;;;;;;4.70;57.30;100702.63;116761;1189;21953;-49
2022/03/09 09:39:21;;;;;;;;;;;;;;;4.72;57.38;100701.25;116861;1188;21900;-65
2022/03/09 09:41:52;;;;;;;8.00;5.90;;;;;;;4.76;57.30;100703.07;116883;1189;22914;-50
2022/03/09 09:44:22;;;;;;;6.70;5.20;;;;;;;4.84;57.56;100703.38;116990;1188;22948;-50
2022/03/09 09:46:51;;;;;;;8.10;5.00;;;;;;;4.94;57.57;100700.92;116899;1188;24702;-51
2022/03/09 09:49:24;;;;;;;8.20;5.50;;;;;;;5.03;57.65;100701.77;116843;1189;22439;-64
2022/03/09 09:51:54;;;;;;;7.00;5.00;;;;;;;5.10;57.39;100696.13;116773;1190;24300;-50
2022/03/09 09:54:23;;;;;;;7.70;6.10;;;;;;;5.21;57.53;100696.63;116918;1188;21927;-65
2022/03/09 09:56:57;;;;;;;7.00;4.90;;;;;;;5.36;57.75;100699.29;116748;1189;24394;-64
2022/03/09 09:59:26;;;;;;;7.90;5.20;;;;;;;5.54;57.58;100697.45;116949;1191;22930;-51
2022/03/09 10:01:55;;;;;;;6.70;4.70;;;;;;;5.69;57.67;100697.83;116867;1189;23609;-52
2022/03/09 10:04:24;;;;;;;5.60;4.40;;;;;;;5.81;57.64;100695.70;116941;1189;24247;-65
2022/03/09 10:06:56;;;;;;;8.10;4.60;;;;;;;5.96;57.94;100696.40;116827;1188;22014;-51
2022/03/09 10:09:37;;;;;;;6.40;4.80;;;;;;;6.06;57.85;100694.98;117224;1188;21951;-51
2022/03/09 10:12:07;;;;;;;7.50;5.00;;;;;;;6.10;57.47;100695.37;118835;1189;21834;-67
2022/03/09 10:14:50;;;;;;;7.20;5.20;;;;;;;6.06;57.58;100698.30;116994;1188;24769;-65
2022/03/09 10:17:19;;;;;;;5.70;4.40;;;;;;;6.03;57.69;100695.64;118922;1188;21900;-64
2022/03/09 10:19:58;;;;;;;5.90;3.90;;;;;;;5.99;57.23;100699.59;118953;1188;21844;-65
2022/03/09 10:22:34;;;;;;;5.80;3.40;;;;;;;5.86;56.94;100699.06;116988;1188;21856;-51
2022/03/09 10:25:27;;;;;;;6.90;3.90;;;;;;;5.70;57.05;100698.35;116895;1189;21868;-52
2022/03/09 10:27:56;;;;;;;8.60;4.80;;;;;;;5.57;56.89;100707.92;116951;1188;22018;-63
2022/03/09 10:30:33;;;;;;;6.60;4.20;;;;;;;5.41;56.64;100711.19;116896;1187;21945;-51
2022/03/09 10:33:08;;;;;;;7.10;4.70;;;;;;;5.26;56.94;100709.58;116881;1189;21845;-65
2022/03/09 10:35:41;;;;;;;7.80;4.80;;;;;;;5.14;56.97;100714.63;116900;1188;23588;-52
2022/03/09 10:38:14;;;;;;;10.40;5.30;;;;;;;5.10;56.86;100718.91;117537;1188;22327;-49
2022/03/09 10:40:44;;;;;;;8.60;5.40;;;;;;;5.08;57.20;100719.41;117249;1189;23553;-63
2022/03/09 10:43:17;;;;;;;8.70;5.40;;;;;;;5.06;57.35;100725.48;116867;1189;22331;-51
2022/03/09 10:45:55;;;;;;;7.50;5.30;;;;;;;5.05;57.11;100722.33;116912;1185;21867;-61
2022/03/09 10:48:25;;;;;;;9.30;6.20;;;;;;;4.95;56.81;100729.63;116919;1188;21858;-53
2022/03/09 10:50:54;;;;;;;;;;;;;;;4.85;56.82;100727.92;116905;1189;21972;-64
2022/03/09 10:53:23;;;;;;;8.70;6.10;;;;;;;4.78;56.92;100727.27;116971;1188;21856;-55
2022/03/09 10:55:52;;;;;;;9.80;6.30;;;;;;;4.68;56.97;100731.61;116884;1188;21976;-53
2022/03/09 10:58:22;;;;;;;9.80;6.10;;;;;;;4.59;56.52;100728.34;116850;1184;23516;-53
2022/03/09 11:00:55;;;;;;;8.60;5.60;;;;;;;4.52;56.49;100729.07;116924;1186;21923;-62
2022/03/09 11:03:25;;;;;;;8.00;5.40;;;;;;;4.42;56.59;100728.54;117347;1188;22929;-53
2022/03/09 11:06:05;;;;;;;7.40;5.20;;;;;;;4.35;56.55;100721.98;116896;1188;21858;-63
2022/03/09 11:08:35;;;;;;;7.70;5.70;;;;;;;4.29;56.62;100721.88;116955;1188;21929;-62
2022/03/09 11:11:05;;;;;;;7.60;5.40;;;;;;;4.26;56.71;100726.15;116897;1188;23429;-53
2022/03/09 11:13:53;;;;;;;10.00;6.10;;;;;;;4.21;56.76;100731.45;116831;1189;21909;-53
2022/03/09 11:16:22;;;;;;;7.00;5.40;;;;;;;4.22;56.88;100732.16;116967;1188;23553;-62
2022/03/09 11:18:54;;;;;;;7.30;4.90;;;;;;;4.19;56.83;100731.08;116956;1188;23760;-62
2022/03/09 11:21:23;;;;;;;8.10;5.00;;;;;;;4.18;56.76;100731.23;116746;1188;23670;-53
2022/03/09 11:23:51;;;;;;;7.40;5.20;;;;;;;4.19;56.84;100728.81;116743;1188;23481;-62
2022/03/09 11:26:24;;;;;;;8.10;5.50;;;;;;;4.21;56.94;100735.61;116715;1189;22045;-62
2022/03/09 11:29:30;;;;;;;7.20;5.60;;;;;;;4.24;56.72;100733.59;116895;1189;21854;-62
2022/03/09 11:31:58;;;;;;;9.10;6.10;;;;;;;4.29;56.95;100739.08;116877;1188;22884;-63
2022/03/09 11:34:48;;;;;;;7.90;5.40;;;;;;;4.32;57.01;100737.05;116792;1183;24290;-51
2022/03/09 11:37:36;;;;;;;8.30;5.90;;;;;;;4.41;56.92;100736.19;116931;1189;22175;-53
2022/03/09 11:40:05;;;;;;;8.40;6.00;;;;;;;4.48;56.82;100737.52;116811;1189;21883;-51
2022/03/09 11:42:38;;;;;;;8.90;6.00;;;;;;;4.51;56.74;100744.53;116912;1189;22913;-51